sensor_id;sensor_type;location;lat;lon;timestamp;pressure;altitude;pressure_sealevel;temperature;humidity
7614;BME280;3848;42.016;23.098;2023-06-14T00:00:00;96724.44;;;19.49;100.00
7614;BME280;3848;42.016;23.098;2023-06-14T00:02:29;96721.94;;;19.47;100.00
7614;BME280;3848;42.016;23.098;2023-06-14T00:04:57;96721.78;;;19.50;100.00
7614;BME280;3848;42.016;23.098;2023-06-14T00:07:34;96712.47;;;19.48;100.00
7614;BME280;3848;42.016;23.098;2023-06-14T00:10:01;96725.06;;;19.54;100.00
7614;BME280;3848;42.016;23.098;2023-06-14T00:12:28;96720.66;;;19.56;100.00
7614;BME280;3848;42.016;23.098;2023-06-14T00:14:55;96724.16;;;19.55;100.00
7614;BME280;3848;42.016;23.098;2023-06-14T00:17:22;96708.69;;;19.55;100.00
7614;BME280;3848;42.016;23.098;2023-06-14T00:19:49;96705.22;;;19.56;100.00
7614;BME280;3848;42.016;23.098;2023-06-14T00:22:17;96701.66;;;19.59;100.00
7614;BME280;3848;42.016;23.098;2023-06-14T00:24:44;96698.25;;;19.58;100.00
7614;BME280;3848;42.016;23.098;2023-06-14T00:27:10;96659.34;;;19.28;100.00
7614;BME280;3848;42.016;23.098;2023-06-14T00:29:37;96699.34;;;19.53;100.00
7614;BME280;3848;42.016;23.098;2023-06-14T00:32:04;96691.78;;;19.49;100.00
7614;BME280;3848;42.016;23.098;2023-06-14T00:34:32;96690.28;;;19.45;100.00
7614;BME280;3848;42.016;23.098;2023-06-14T00:36:59;96693.91;;;19.41;100.00
7614;BME280;3848;42.016;23.098;2023-06-14T00:39:27;96695.00;;;19.37;100.00
7614;BME280;3848;42.016;23.098;2023-06-14T00:41:54;96692.63;;;19.33;100.00
7614;BME280;3848;42.016;23.098;2023-06-14T00:44:21;96691.94;;;19.29;100.00
7614;BME280;3848;42.016;23.098;2023-06-14T00:46:47;96655.88;;;19.12;100.00
7614;BME280;3848;42.016;23.098;2023-06-14T00:49:15;96677.22;;;19.31;100.00
7614;BME280;3848;42.016;23.098;2023-06-14T00:51:42;96663.00;;;19.24;100.00
7614;BME280;3848;42.016;23.098;2023-06-14T00:54:09;96671.66;;;19.23;100.00
7614;BME280;3848;42.016;23.098;2023-06-14T00:56:37;96680.06;;;19.27;100.00
7614;BME280;3848;42.016;23.098;2023-06-14T00:59:05;96676.63;;;19.26;100.00
7614;BME280;3848;42.016;23.098;2023-06-14T01:01:32;96676.56;;;19.28;100.00
7614;BME280;3848;42.016;23.098;2023-06-14T01:03:59;96676.81;;;19.23;100.00
7614;BME280;3848;42.016;23.098;2023-06-14T01:06:32;96654.22;;;19.11;100.00
7614;BME280;3848;42.016;23.098;2023-06-14T01:09:06;96671.97;;;19.17;100.00
7614;BME280;3848;42.016;23.098;2023-06-14T01:11:43;96673.47;;;19.21;100.00
7614;BME280;3848;42.016;23.098;2023-06-14T01:14:14;96666.81;;;19.17;100.00
7614;BME280;3848;42.016;23.098;2023-06-14T01:16:42;96666.03;;;19.15;100.00
7614;BME280;3848;42.016;23.098;2023-06-14T01:19:11;96670.28;;;19.16;100.00
7614;BME280;3848;42.016;23.098;2023-06-14T01:21:39;96657.94;;;19.05;100.00
7614;BME280;3848;42.016;23.098;2023-06-14T01:24:08;96669.75;;;19.09;100.00
7614;BME280;3848;42.016;23.098;2023-06-14T01:26:38;96662.25;;;19.05;100.00
7614;BME280;3848;42.016;23.098;2023-06-14T01:29:11;96650.72;;;18.95;100.00
7614;BME280;3848;42.016;23.098;2023-06-14T01:31:42;96667.56;;;19.02;100.00
7614;BME280;3848;42.016;23.098;2023-06-14T01:34:09;96662.56;;;18.99;100.00
7614;BME280;3848;42.016;23.098;2023-06-14T01:36:37;96673.47;;;19.04;100.00
7614;BME280;3848;42.016;23.098;2023-06-14T01:39:08;96672.88;;;18.99;100.00
7614;BME280;3848;42.016;23.098;2023-06-14T01:41:37;96669.72;;;18.92;100.00
7614;BME280;3848;42.016;23.098;2023-06-14T01:44:04;96675.25;;;18.84;100.00
7614;BME280;3848;42.016;23.098;2023-06-14T01:46:32;96679.72;;;18.81;100.00
7614;BME280;3848;42.016;23.098;2023-06-14T01:48:59;96682.13;;;18.67;100.00
7614;BME280;3848;42.016;23.098;2023-06-14T01:51:25;96682.38;;;18.61;100.00
7614;BME280;3848;42.016;23.098;2023-06-14T01:53:52;96687.53;;;18.61;100.00
7614;BME280;3848;42.016;23.098;2023-06-14T01:56:20;96688.25;;;18.64;100.00
7614;BME280;3848;42.016;23.098;2023-06-14T01:58:47;96694.75;;;18.71;100.00
7614;BME280;3848;42.016;23.098;2023-06-14T02:01:15;96701.47;;;18.75;100.00
7614;BME280;3848;42.016;23.098;2023-06-14T02:03:42;96704.88;;;18.76;100.00
7614;BME280;3848;42.016;23.098;2023-06-14T02:06:10;96696.91;;;18.80;100.00
7614;BME280;3848;42.016;23.098;2023-06-14T02:08:37;96703.81;;;18.80;100.00
7614;BME280;3848;42.016;23.098;2023-06-14T02:11:04;96700.31;;;18.81;100.00
7614;BME280;3848;42.016;23.098;2023-06-14T02:13:32;96698.81;;;18.77;100.00
7614;BME280;3848;42.016;23.098;2023-06-14T02:15:59;96706.31;;;18.81;100.00
7614;BME280;3848;42.016;23.098;2023-06-14T02:18:26;96706.47;;;18.78;100.00
7614;BME280;3848;42.016;23.098;2023-06-14T02:20:53;96707.38;;;18.77;100.00
7614;BME280;3848;42.016;23.098;2023-06-14T02:23:20;96715.09;;;18.77;100.00
7614;BME280;3848;42.016;23.098;2023-06-14T02:25:47;96718.41;;;18.79;100.00
7614;BME280;3848;42.016;23.098;2023-06-14T02:28:14;96721.06;;;18.78;100.00
7614;BME280;3848;42.016;23.098;2023-06-14T02:30:42;96724.66;;;18.74;100.00
7614;BME280;3848;42.016;23.098;2023-06-14T02:33:09;96725.66;;;18.71;100.00
7614;BME280;3848;42.016;23.098;2023-06-14T02:35:38;96719.66;;;18.71;100.00
7614;BME280;3848;42.016;23.098;2023-06-14T02:38:05;96715.66;;;18.65;100.00
7614;BME280;3848;42.016;23.098;2023-06-14T02:40:31;96714.09;;;18.61;100.00
7614;BME280;3848;42.016;23.098;2023-06-14T02:42:58;96724.28;;;18.64;100.00
7614;BME280;3848;42.016;23.098;2023-06-14T02:45:25;96721.81;;;18.61;100.00
7614;BME280;3848;42.016;23.098;2023-06-14T02:47:53;96727.19;;;18.56;100.00
7614;BME280;3848;42.016;23.098;2023-06-14T02:50:21;96722.22;;;18.52;100.00
7614;BME280;3848;42.016;23.098;2023-06-14T02:52:49;96720.72;;;18.48;100.00
7614;BME280;3848;42.016;23.098;2023-06-14T02:55:16;96705.63;;;18.40;100.00
7614;BME280;3848;42.016;23.098;2023-06-14T02:57:42;96712.16;;;18.47;100.00
7614;BME280;3848;42.016;23.098;2023-06-14T03:00:10;96718.13;;;18.48;100.00
7614;BME280;3848;42.016;23.098;2023-06-14T03:02:38;96721.47;;;18.50;100.00
7614;BME280;3848;42.016;23.098;2023-06-14T03:05:07;96716.47;;;18.47;100.00
7614;BME280;3848;42.016;23.098;2023-06-14T03:07:35;96738.31;;;18.57;100.00
7614;BME280;3848;42.016;23.098;2023-06-14T03:10:07;96740.75;;;18.60;100.00
7614;BME280;3848;42.016;23.098;2023-06-14T03:12:35;96700.63;;;18.37;100.00
7614;BME280;3848;42.016;23.098;2023-06-14T03:15:02;96732.00;;;18.64;100.00
7614;BME280;3848;42.016;23.098;2023-06-14T03:17:29;96740.34;;;18.69;100.00
7614;BME280;3848;42.016;23.098;2023-06-14T03:19:59;96739.25;;;18.75;100.00
7614;BME280;3848;42.016;23.098;2023-06-14T03:22:27;96740.75;;;18.79;100.00
7614;BME280;3848;42.016;23.098;2023-06-14T03:24:54;96754.59;;;18.76;100.00
7614;BME280;3848;42.016;23.098;2023-06-14T03:27:21;96747.06;;;18.72;100.00
7614;BME280;3848;42.016;23.098;2023-06-14T03:29:48;96747.28;;;18.67;100.00
7614;BME280;3848;42.016;23.098;2023-06-14T03:32:14;96749.72;;;18.70;100.00
7614;BME280;3848;42.016;23.098;2023-06-14T03:34:41;96746.13;;;18.74;100.00
7614;BME280;3848;42.016;23.098;2023-06-14T03:37:10;96715.22;;;18.55;100.00
7614;BME280;3848;42.016;23.098;2023-06-14T03:39:38;96744.94;;;18.81;100.00
7614;BME280;3848;42.016;23.098;2023-06-14T03:42:11;96745.69;;;18.83;100.00
7614;BME280;3848;42.016;23.098;2023-06-14T03:44:38;96745.53;;;18.86;100.00
7614;BME280;3848;42.016;23.098;2023-06-14T03:47:05;96744.69;;;18.86;100.00
7614;BME280;3848;42.016;23.098;2023-06-14T03:49:32;96747.63;;;18.97;100.00
7614;BME280;3848;42.016;23.098;2023-06-14T03:51:59;96744.31;;;18.94;100.00
7614;BME280;3848;42.016;23.098;2023-06-14T03:54:27;96751.56;;;19.04;100.00
7614;BME280;3848;42.016;23.098;2023-06-14T03:56:56;96752.25;;;19.08;100.00
7614;BME280;3848;42.016;23.098;2023-06-14T03:59:23;96712.06;;;18.86;100.00
7614;BME280;3848;42.016;23.098;2023-06-14T04:01:51;96756.13;;;19.16;100.00
7614;BME280;3848;42.016;23.098;2023-06-14T04:04:18;96762.16;;;19.15;100.00
7614;BME280;3848;42.016;23.098;2023-06-14T04:06:46;96760.72;;;19.10;100.00
7614;BME280;3848;42.016;23.098;2023-06-14T04:09:13;96754.13;;;19.04;100.00
7614;BME280;3848;42.016;23.098;2023-06-14T04:11:40;96755.53;;;18.93;100.00
7614;BME280;3848;42.016;23.098;2023-06-14T04:14:08;96755.41;;;18.96;100.00
7614;BME280;3848;42.016;23.098;2023-06-14T04:16:35;96750.28;;;18.96;100.00
7614;BME280;3848;42.016;23.098;2023-06-14T04:19:02;96733.41;;;18.88;100.00
7614;BME280;3848;42.016;23.098;2023-06-14T04:21:29;96746.47;;;19.03;100.00
7614;BME280;3848;42.016;23.098;2023-06-14T04:23:55;96748.91;;;19.06;100.00
7614;BME280;3848;42.016;23.098;2023-06-14T04:26:22;96741.19;;;19.06;100.00
7614;BME280;3848;42.016;23.098;2023-06-14T04:28:55;96741.94;;;19.08;100.00
7614;BME280;3848;42.016;23.098;2023-06-14T04:31:23;96741.19;;;19.06;100.00
7614;BME280;3848;42.016;23.098;2023-06-14T04:33:50;96734.09;;;18.92;100.00
7614;BME280;3848;42.016;23.098;2023-06-14T04:36:19;96755.03;;;19.03;100.00
7614;BME280;3848;42.016;23.098;2023-06-14T04:38:46;96761.16;;;19.01;100.00
7614;BME280;3848;42.016;23.098;2023-06-14T04:41:14;96761.94;;;19.03;100.00
7614;BME280;3848;42.016;23.098;2023-06-14T04:43:41;96764.97;;;19.11;100.00
7614;BME280;3848;42.016;23.098;2023-06-14T04:46:08;96752.38;;;19.05;100.00
7614;BME280;3848;42.016;23.098;2023-06-14T04:48:39;96765.13;;;19.08;100.00
7614;BME280;3848;42.016;23.098;2023-06-14T04:51:06;96762.53;;;19.08;100.00
7614;BME280;3848;42.016;23.098;2023-06-14T04:53:33;96765.72;;;19.13;100.00
7614;BME280;3848;42.016;23.098;2023-06-14T04:56:00;96771.78;;;19.12;100.00
7614;BME280;3848;42.016;23.098;2023-06-14T04:58:28;96776.66;;;19.18;100.00
7614;BME280;3848;42.016;23.098;2023-06-14T05:00:55;96776.50;;;19.21;100.00
7614;BME280;3848;42.016;23.098;2023-06-14T05:03:22;96777.50;;;19.18;100.00
7614;BME280;3848;42.016;23.098;2023-06-14T05:05:51;96782.28;;;19.26;100.00
7614;BME280;3848;42.016;23.098;2023-06-14T05:08:18;96782.03;;;19.31;100.00
7614;BME280;3848;42.016;23.098;2023-06-14T05:10:45;96786.91;;;19.37;100.00
7614;BME280;3848;42.016;23.098;2023-06-14T05:13:12;96786.13;;;19.35;100.00
7614;BME280;3848;42.016;23.098;2023-06-14T05:15:39;96783.28;;;19.41;100.00
7614;BME280;3848;42.016;23.098;2023-06-14T05:18:06;96796.53;;;19.50;100.00
7614;BME280;3848;42.016;23.098;2023-06-14T05:20:35;96796.34;;;19.55;100.00
7614;BME280;3848;42.016;23.098;2023-06-14T05:23:03;96799.22;;;19.66;100.00
7614;BME280;3848;42.016;23.098;2023-06-14T05:25:30;96794.34;;;19.77;100.00
7614;BME280;3848;42.016;23.098;2023-06-14T05:27:57;96796.34;;;19.90;100.00
7614;BME280;3848;42.016;23.098;2023-06-14T05:30:24;96795.19;;;19.95;100.00
7614;BME280;3848;42.016;23.098;2023-06-14T05:32:52;96744.19;;;19.67;100.00
7614;BME280;3848;42.016;23.098;2023-06-14T05:35:20;96796.97;;;20.10;100.00
7614;BME280;3848;42.016;23.098;2023-06-14T05:37:48;96799.56;;;20.10;100.00
7614;BME280;3848;42.016;23.098;2023-06-14T05:40:16;96798.31;;;20.18;100.00
7614;BME280;3848;42.016;23.098;2023-06-14T05:42:43;96793.22;;;20.33;100.00
7614;BME280;3848;42.016;23.098;2023-06-14T05:45:10;96796.44;;;20.37;100.00
7614;BME280;3848;42.016;23.098;2023-06-14T05:47:38;96795.94;;;20.48;100.00
7614;BME280;3848;42.016;23.098;2023-06-14T05:50:10;96790.34;;;20.55;100.00
7614;BME280;3848;42.016;23.098;2023-06-14T05:52:37;96808.03;;;20.79;100.00
7614;BME280;3848;42.016;23.098;2023-06-14T05:55:08;96816.88;;;20.90;100.00
7614;BME280;3848;42.016;23.098;2023-06-14T05:57:38;96811.38;;;20.96;100.00
7614;BME280;3848;42.016;23.098;2023-06-14T06:00:08;96815.31;;;21.04;100.00
7614;BME280;3848;42.016;23.098;2023-06-14T06:02:40;96815.03;;;21.08;100.00
7614;BME280;3848;42.016;23.098;2023-06-14T06:05:09;96814.47;;;21.03;100.00
7614;BME280;3848;42.016;23.098;2023-06-14T06:07:38;96790.03;;;20.93;100.00
7614;BME280;3848;42.016;23.098;2023-06-14T06:10:23;96823.69;;;21.23;100.00
7614;BME280;3848;42.016;23.098;2023-06-14T06:12:55;96825.06;;;21.30;100.00
7614;BME280;3848;42.016;23.098;2023-06-14T06:15:24;96828.78;;;21.40;100.00
7614;BME280;3848;42.016;23.098;2023-06-14T06:17:51;96824.94;;;21.47;100.00
7614;BME280;3848;42.016;23.098;2023-06-14T06:20:18;96827.66;;;21.60;100.00
7614;BME280;3848;42.016;23.098;2023-06-14T06:23:04;96828.63;;;21.73;100.00
7614;BME280;3848;42.016;23.098;2023-06-14T06:25:31;96815.13;;;21.68;100.00
7614;BME280;3848;42.016;23.098;2023-06-14T06:27:59;96829.41;;;21.89;100.00
7614;BME280;3848;42.016;23.098;2023-06-14T06:30:26;96830.66;;;21.82;100.00
7614;BME280;3848;42.016;23.098;2023-06-14T06:32:53;96835.75;;;21.84;100.00
7614;BME280;3848;42.016;23.098;2023-06-14T06:35:21;96828.72;;;21.86;100.00
7614;BME280;3848;42.016;23.098;2023-06-14T06:37:47;96824.69;;;21.96;100.00
7614;BME280;3848;42.016;23.098;2023-06-14T06:40:14;96827.94;;;22.00;100.00
7614;BME280;3848;42.016;23.098;2023-06-14T06:42:41;96828.53;;;22.05;100.00
7614;BME280;3848;42.016;23.098;2023-06-14T06:45:10;96829.59;;;22.01;100.00
7614;BME280;3848;42.016;23.098;2023-06-14T06:47:37;96836.59;;;22.14;100.00
7614;BME280;3848;42.016;23.098;2023-06-14T06:50:05;96828.47;;;22.20;100.00
7614;BME280;3848;42.016;23.098;2023-06-14T06:52:33;96827.16;;;22.13;100.00
7614;BME280;3848;42.016;23.098;2023-06-14T06:55:00;96820.88;;;22.17;100.00
7614;BME280;3848;42.016;23.098;2023-06-14T06:57:28;96816.06;;;22.26;100.00
7614;BME280;3848;42.016;23.098;2023-06-14T06:59:55;96804.88;;;22.25;100.00
7614;BME280;3848;42.016;23.098;2023-06-14T07:02:23;96811.94;;;22.37;100.00
7614;BME280;3848;42.016;23.098;2023-06-14T07:04:50;96813.78;;;22.49;100.00
7614;BME280;3848;42.016;23.098;2023-06-14T07:07:17;96814.97;;;22.58;100.00
7614;BME280;3848;42.016;23.098;2023-06-14T07:09:44;96809.94;;;22.69;100.00
7614;BME280;3848;42.016;23.098;2023-06-14T07:12:11;96805.88;;;22.79;100.00
7614;BME280;3848;42.016;23.098;2023-06-14T07:14:38;96812.63;;;22.96;100.00
7614;BME280;3848;42.016;23.098;2023-06-14T07:17:05;96812.25;;;23.02;100.00
7614;BME280;3848;42.016;23.098;2023-06-14T07:19:33;96802.22;;;23.10;100.00
7614;BME280;3848;42.016;23.098;2023-06-14T07:22:00;96802.78;;;23.16;100.00
7614;BME280;3848;42.016;23.098;2023-06-14T07:24:28;96794.91;;;23.30;100.00
7614;BME280;3848;42.016;23.098;2023-06-14T07:26:58;96782.16;;;23.27;100.00
7614;BME280;3848;42.016;23.098;2023-06-14T07:29:25;96805.44;;;23.41;100.00
7614;BME280;3848;42.016;23.098;2023-06-14T07:31:52;96806.16;;;23.43;100.00
7614;BME280;3848;42.016;23.098;2023-06-14T07:34:19;96803.69;;;23.41;100.00
7614;BME280;3848;42.016;23.098;2023-06-14T07:36:48;96815.72;;;23.42;100.00
7614;BME280;3848;42.016;23.098;2023-06-14T07:39:15;96808.66;;;23.45;100.00
7614;BME280;3848;42.016;23.098;2023-06-14T07:41:42;96817.19;;;23.47;100.00
7614;BME280;3848;42.016;23.098;2023-06-14T07:44:12;96800.16;;;23.42;100.00
7614;BME280;3848;42.016;23.098;2023-06-14T07:46:39;96814.47;;;23.62;100.00
7614;BME280;3848;42.016;23.098;2023-06-14T07:49:06;96813.84;;;23.71;100.00
7614;BME280;3848;42.016;23.098;2023-06-14T07:51:33;96820.06;;;23.69;100.00
7614;BME280;3848;42.016;23.098;2023-06-14T07:54:05;96809.81;;;23.80;100.00
7614;BME280;3848;42.016;23.098;2023-06-14T07:56:33;96817.19;;;23.86;100.00
7614;BME280;3848;42.016;23.098;2023-06-14T07:59:01;96820.63;;;23.87;100.00
7614;BME280;3848;42.016;23.098;2023-06-14T08:01:28;96817.44;;;23.96;100.00
7614;BME280;3848;42.016;23.098;2023-06-14T08:03:56;96813.88;;;24.10;100.00
7614;BME280;3848;42.016;23.098;2023-06-14T08:06:33;96803.63;;;24.21;100.00
7614;BME280;3848;42.016;23.098;2023-06-14T08:09:26;96664.47;;;23.42;100.00
7614;BME280;3848;42.016;23.098;2023-06-14T08:11:55;96809.66;;;24.47;100.00
7614;BME280;3848;42.016;23.098;2023-06-14T08:14:22;96809.44;;;24.62;100.00
7614;BME280;3848;42.016;23.098;2023-06-14T08:16:49;96812.00;;;24.75;100.00
7614;BME280;3848;42.016;23.098;2023-06-14T08:19:16;96808.44;;;24.89;100.00
7614;BME280;3848;42.016;23.098;2023-06-14T08:21:43;96809.53;;;24.98;100.00
7614;BME280;3848;42.016;23.098;2023-06-14T08:24:11;96812.03;;;25.12;100.00
7614;BME280;3848;42.016;23.098;2023-06-14T08:26:40;96794.50;;;25.03;100.00
7614;BME280;3848;42.016;23.098;2023-06-14T08:29:07;96791.22;;;25.12;100.00
7614;BME280;3848;42.016;23.098;2023-06-14T08:31:34;96805.34;;;25.20;100.00
7614;BME280;3848;42.016;23.098;2023-06-14T08:34:01;96802.22;;;25.15;100.00
7614;BME280;3848;42.016;23.098;2023-06-14T08:36:28;96784.03;;;25.15;100.00
7614;BME280;3848;42.016;23.098;2023-06-14T08:38:55;96801.56;;;25.48;100.00
7614;BME280;3848;42.016;23.098;2023-06-14T08:41:22;96780.13;;;25.69;100.00
7614;BME280;3848;42.016;23.098;2023-06-14T08:43:52;96797.03;;;26.09;100.00
7614;BME280;3848;42.016;23.098;2023-06-14T08:46:19;96785.91;;;26.30;100.00
7614;BME280;3848;42.016;23.098;2023-06-14T08:48:48;96780.16;;;26.49;100.00
7614;BME280;3848;42.016;23.098;2023-06-14T08:51:18;96774.22;;;26.69;90.99
7614;BME280;3848;42.016;23.098;2023-06-14T08:53:52;96788.66;;;26.73;91.16
7614;BME280;3848;42.016;23.098;2023-06-14T08:56:24;96771.47;;;26.70;90.08
7614;BME280;3848;42.016;23.098;2023-06-14T08:58:55;96773.09;;;26.83;98.94
7614;BME280;3848;42.016;23.098;2023-06-14T09:01:22;96763.38;;;26.96;92.36
7614;BME280;3848;42.016;23.098;2023-06-14T09:03:49;96764.09;;;27.09;94.27
7614;BME280;3848;42.016;23.098;2023-06-14T09:06:17;96764.66;;;27.13;90.10
7614;BME280;3848;42.016;23.098;2023-06-14T09:08:46;96768.66;;;27.28;86.95
7614;BME280;3848;42.016;23.098;2023-06-14T09:11:14;96757.69;;;27.34;85.75
7614;BME280;3848;42.016;23.098;2023-06-14T09:13:44;96752.38;;;27.56;89.88
7614;BME280;3848;42.016;23.098;2023-06-14T09:16:12;96755.59;;;27.81;82.91
7614;BME280;3848;42.016;23.098;2023-06-14T09:18:40;96740.81;;;27.91;72.95
7614;BME280;3848;42.016;23.098;2023-06-14T09:21:10;96749.88;;;28.17;79.42
7614;BME280;3848;42.016;23.098;2023-06-14T09:23:37;96734.06;;;28.19;72.22
7614;BME280;3848;42.016;23.098;2023-06-14T09:26:08;96734.00;;;27.79;75.43
7614;BME280;3848;42.016;23.098;2023-06-14T09:28:36;96742.09;;;27.44;74.41
7614;BME280;3848;42.016;23.098;2023-06-14T09:31:07;96728.44;;;27.51;68.30
7614;BME280;3848;42.016;23.098;2023-06-14T09:33:41;96736.09;;;27.85;72.93
7614;BME280;3848;42.016;23.098;2023-06-14T09:36:15;96735.72;;;28.20;70.64
7614;BME280;3848;42.016;23.098;2023-06-14T09:38:44;96740.25;;;28.48;75.63
7614;BME280;3848;42.016;23.098;2023-06-14T09:41:19;96733.06;;;28.81;81.88
7614;BME280;3848;42.016;23.098;2023-06-14T09:43:55;96734.91;;;29.09;78.35
7614;BME280;3848;42.016;23.098;2023-06-14T09:46:30;96737.69;;;29.47;67.83
7614;BME280;3848;42.016;23.098;2023-06-14T09:48:59;96704.84;;;29.71;78.50
7614;BME280;3848;42.016;23.098;2023-06-14T09:51:31;96734.59;;;29.90;59.77
7614;BME280;3848;42.016;23.098;2023-06-14T09:53:59;96733.47;;;30.02;64.09
7614;BME280;3848;42.016;23.098;2023-06-14T09:56:37;96737.34;;;30.35;59.45
7614;BME280;3848;42.016;23.098;2023-06-14T09:59:12;96730.09;;;30.19;60.41
7614;BME280;3848;42.016;23.098;2023-06-14T10:01:42;96718.16;;;30.07;57.56
7614;BME280;3848;42.016;23.098;2023-06-14T10:04:11;96719.34;;;29.66;57.52
7614;BME280;3848;42.016;23.098;2023-06-14T10:06:43;96725.78;;;29.71;58.74
7614;BME280;3848;42.016;23.098;2023-06-14T10:09:12;96712.88;;;29.60;57.57
7614;BME280;3848;42.016;23.098;2023-06-14T10:11:40;96713.22;;;30.04;58.20
7614;BME280;3848;42.016;23.098;2023-06-14T10:14:10;96688.50;;;30.07;60.05
7614;BME280;3848;42.016;23.098;2023-06-14T10:16:45;96699.13;;;30.32;62.53
7614;BME280;3848;42.016;23.098;2023-06-14T10:19:18;96709.22;;;30.55;62.06
7614;BME280;3848;42.016;23.098;2023-06-14T10:21:54;96707.22;;;30.21;60.58
7614;BME280;3848;42.016;23.098;2023-06-14T10:24:28;96686.56;;;29.99;63.01
7614;BME280;3848;42.016;23.098;2023-06-14T10:26:58;96698.25;;;30.14;63.64
7614;BME280;3848;42.016;23.098;2023-06-14T10:29:26;96697.56;;;30.40;63.42
7614;BME280;3848;42.016;23.098;2023-06-14T10:31:58;96700.59;;;30.45;61.79
7614;BME280;3848;42.016;23.098;2023-06-14T10:34:27;96690.38;;;30.14;61.41
7614;BME280;3848;42.016;23.098;2023-06-14T10:37:02;96690.22;;;29.69;63.21
7614;BME280;3848;42.016;23.098;2023-06-14T10:39:29;96693.03;;;29.48;70.96
7614;BME280;3848;42.016;23.098;2023-06-14T10:41:57;96693.72;;;29.02;79.98
7614;BME280;3848;42.016;23.098;2023-06-14T10:44:37;96661.56;;;28.71;82.54
7614;BME280;3848;42.016;23.098;2023-06-14T10:47:07;96694.63;;;28.81;84.60
7614;BME280;3848;42.016;23.098;2023-06-14T10:49:44;96702.72;;;28.69;83.99
7614;BME280;3848;42.016;23.098;2023-06-14T10:52:13;96691.78;;;28.35;90.71
7614;BME280;3848;42.016;23.098;2023-06-14T10:55:05;96700.19;;;28.38;92.45
7614;BME280;3848;42.016;23.098;2023-06-14T10:57:35;96703.97;;;28.24;89.24
7614;BME280;3848;42.016;23.098;2023-06-14T11:00:03;96704.34;;;28.20;87.35
7614;BME280;3848;42.016;23.098;2023-06-14T11:05:53;96695.66;;;28.40;83.73
7614;BME280;3848;42.016;23.098;2023-06-14T11:11:31;96693.31;;;28.47;85.42
7614;BME280;3848;42.016;23.098;2023-06-14T11:14:00;96683.56;;;28.49;76.03
7614;BME280;3848;42.016;23.098;2023-06-14T11:16:27;96685.81;;;28.63;80.13
7614;BME280;3848;42.016;23.098;2023-06-14T11:18:54;96679.19;;;28.69;73.68
7614;BME280;3848;42.016;23.098;2023-06-14T11:21:24;96683.66;;;28.88;76.46
7614;BME280;3848;42.016;23.098;2023-06-14T11:23:55;96674.59;;;29.01;79.90
7614;BME280;3848;42.016;23.098;2023-06-14T11:26:25;96682.28;;;29.03;73.60
7614;BME280;3848;42.016;23.098;2023-06-14T11:28:55;96674.41;;;28.93;69.25
7614;BME280;3848;42.016;23.098;2023-06-14T11:31:22;96678.69;;;28.94;67.07
7614;BME280;3848;42.016;23.098;2023-06-14T11:33:49;96677.03;;;28.93;74.19
7614;BME280;3848;42.016;23.098;2023-06-14T11:36:17;96675.81;;;28.97;70.87
7614;BME280;3848;42.016;23.098;2023-06-14T11:38:45;96632.41;;;28.66;66.88
7614;BME280;3848;42.016;23.098;2023-06-14T11:41:12;96670.66;;;28.67;67.48
7614;BME280;3848;42.016;23.098;2023-06-14T11:43:39;96671.75;;;28.54;67.17
7614;BME280;3848;42.016;23.098;2023-06-14T11:46:12;96661.50;;;29.01;73.85
7614;BME280;3848;42.016;23.098;2023-06-14T11:48:42;96579.22;;;29.23;74.31
7614;BME280;3848;42.016;23.098;2023-06-14T11:51:10;96653.13;;;30.20;62.86
7614;BME280;3848;42.016;23.098;2023-06-14T11:53:37;96649.72;;;30.83;60.54
7614;BME280;3848;42.016;23.098;2023-06-14T11:56:06;96657.28;;;31.21;54.45
7614;BME280;3848;42.016;23.098;2023-06-14T11:58:33;96651.13;;;31.13;55.02
7614;BME280;3848;42.016;23.098;2023-06-14T12:01:03;96641.44;;;30.78;56.67
7614;BME280;3848;42.016;23.098;2023-06-14T12:03:30;96615.75;;;30.36;58.25
7614;BME280;3848;42.016;23.098;2023-06-14T12:06:04;96638.56;;;30.08;59.39
7614;BME280;3848;42.016;23.098;2023-06-14T12:08:33;96630.13;;;29.67;60.90
7614;BME280;3848;42.016;23.098;2023-06-14T12:11:06;96630.59;;;29.34;60.98
7614;BME280;3848;42.016;23.098;2023-06-14T12:13:34;96617.84;;;29.02;65.16
7614;BME280;3848;42.016;23.098;2023-06-14T12:16:02;96633.13;;;28.87;66.67
7614;BME280;3848;42.016;23.098;2023-06-14T12:18:33;96645.78;;;28.92;67.22
7614;BME280;3848;42.016;23.098;2023-06-14T12:21:01;96655.16;;;28.94;64.91
7614;BME280;3848;42.016;23.098;2023-06-14T12:23:42;96651.69;;;29.13;65.33
7614;BME280;3848;42.016;23.098;2023-06-14T12:26:12;96657.88;;;29.51;61.57
7614;BME280;3848;42.016;23.098;2023-06-14T12:28:40;96649.44;;;29.66;60.37
7614;BME280;3848;42.016;23.098;2023-06-14T12:31:07;96654.56;;;29.95;60.17
7614;BME280;3848;42.016;23.098;2023-06-14T12:33:34;96648.44;;;30.14;57.88
7614;BME280;3848;42.016;23.098;2023-06-14T12:36:03;96640.63;;;30.32;56.21
7614;BME280;3848;42.016;23.098;2023-06-14T12:38:31;96655.78;;;30.56;55.25
7614;BME280;3848;42.016;23.098;2023-06-14T12:40:58;96655.03;;;30.73;55.02
7614;BME280;3848;42.016;23.098;2023-06-14T12:43:26;96648.44;;;30.69;56.13
7614;BME280;3848;42.016;23.098;2023-06-14T12:45:53;96636.00;;;30.16;54.56
7614;BME280;3848;42.016;23.098;2023-06-14T12:48:20;96647.38;;;29.97;53.95
7614;BME280;3848;42.016;23.098;2023-06-14T12:50:47;96644.03;;;30.15;55.09
7614;BME280;3848;42.016;23.098;2023-06-14T12:53:14;96639.88;;;30.40;54.51
7614;BME280;3848;42.016;23.098;2023-06-14T12:55:41;96636.72;;;30.36;54.24
7614;BME280;3848;42.016;23.098;2023-06-14T12:58:08;96608.06;;;29.97;53.27
7614;BME280;3848;42.016;23.098;2023-06-14T13:00:37;96602.31;;;29.57;54.67
7614;BME280;3848;42.016;23.098;2023-06-14T13:03:06;96627.41;;;29.59;57.07
7614;BME280;3848;42.016;23.098;2023-06-14T13:05:35;96632.38;;;29.33;58.61
7614;BME280;3848;42.016;23.098;2023-06-14T13:08:02;96616.03;;;29.02;58.78
7614;BME280;3848;42.016;23.098;2023-06-14T13:10:31;96629.09;;;28.64;59.98
7614;BME280;3848;42.016;23.098;2023-06-14T13:12:58;96599.69;;;28.21;62.32
7614;BME280;3848;42.016;23.098;2023-06-14T13:15:27;96630.31;;;28.00;61.14